Time;durP1;ratioP1;P1;durP2;ratioP2;P2;SDS_P1;SDS_P2;PMS_P1;PMS_P2;Temp;Humidity;BMP_temperature;BMP_pressure;BME280_temperature;BME280_humidity;BME280_pressure;Samples;Min_cycle;Max_cycle;Signal;HPM_P1;HPM_P2
2022/09/20 03:02:07;;;;;;;0.70;0.60;;;10.90;82.00;;;;;;5450515;23;20590;-72
2022/09/20 03:04:47;;;;;;;0.70;0.60;;;10.90;82.00;;;;;;4937264;29;20516;-73
2022/09/20 03:07:22;;;;;;;0.73;0.73;;;10.90;81.90;;;;;;4937231;29;20496;-73
2022/09/20 03:10:00;;;;;;;0.87;0.70;;;10.90;81.80;;;;;;4937206;29;20424;-72
2022/09/20 03:12:40;;;;;;;0.67;0.67;;;10.80;82.10;;;;;;4936832;29;20887;-72
2022/09/20 03:15:19;;;;;;;0.70;0.60;;;10.90;82.30;;;;;;4938548;29;20436;-72
2022/09/20 03:17:57;;;;;;;0.87;0.70;;;10.90;82.30;;;;;;4937132;29;20428;-72
2022/09/20 03:20:31;;;;;;;1.00;0.90;;;10.90;81.90;;;;;;4936940;29;20428;-72
2022/09/20 03:23:04;;;;;;;0.70;0.60;;;10.90;81.80;;;;;;4937030;29;20506;-72
2022/09/20 03:25:45;;;;;;;1.00;0.80;;;10.90;82.00;;;;;;4936675;29;20934;-72
2022/09/20 03:28:29;;;;;;;0.60;0.50;;;10.90;82.00;;;;;;4936783;29;20476;-72
2022/09/20 03:31:08;;;;;;;0.80;0.70;;;11.00;82.00;;;;;;4936314;29;20995;-72
2022/09/20 03:33:44;;;;;;;0.77;0.70;;;11.00;82.00;;;;;;4936499;29;20912;-72
2022/09/20 03:36:23;;;;;;;0.70;0.70;;;11.00;82.00;;;;;;4936836;29;20845;-72
2022/09/20 03:39:22;;;;;;;0.70;0.60;;;11.00;81.70;;;;;;4936397;29;20912;-73
2022/09/20 03:42:12;;;;;;;0.77;0.77;;;11.00;81.90;;;;;;4936320;29;20983;-72
2022/09/20 03:45:05;;;;;;;0.73;0.70;;;10.90;81.90;;;;;;4936664;29;20443;-72
2022/09/20 03:47:50;;;;;;;0.80;0.70;;;10.90;82.10;;;;;;4936616;29;20432;-73
2022/09/20 03:50:33;;;;;;;0.70;0.63;;;10.90;82.40;;;;;;4936509;29;20428;-72
2022/09/20 03:53:19;;;;;;;0.70;0.60;;;10.80;82.80;;;;;;4936551;29;20440;-72
2022/09/20 03:55:58;;;;;;;0.90;0.70;;;10.80;82.90;;;;;;4936682;29;20436;-73
2022/09/20 03:58:43;;;;;;;1.53;0.70;;;10.80;83.00;;;;;;4936466;29;20437;-72
2022/09/20 04:01:26;;;;;;;0.60;0.60;;;10.90;82.90;;;;;;4936508;29;20484;-72
2022/09/20 04:04:00;;;;;;;0.70;0.60;;;10.90;82.90;;;;;;4936311;29;20436;-72
2022/09/20 04:06:58;;;;;;;0.60;0.60;;;10.90;82.90;;;;;;4935850;29;20443;-72
2022/09/20 04:10:00;;;;;;;1.87;0.80;;;11.00;82.80;;;;;;4936210;29;20487;-72
2022/09/20 04:12:33;;;;;;;0.70;0.70;;;11.00;82.90;;;;;;4936178;29;20472;-72
2022/09/20 04:15:15;;;;;;;0.60;0.60;;;11.00;82.80;;;;;;4936302;29;20437;-72
2022/09/20 04:17:49;;;;;;;0.70;0.70;;;11.00;83.20;;;;;;4936205;29;20440;-72
2022/09/20 04:20:22;;;;;;;0.83;0.60;;;11.00;83.10;;;;;;4936219;29;20440;-72
2022/09/20 04:22:54;;;;;;;0.80;0.70;;;10.90;83.20;;;;;;4936111;29;20436;-73
2022/09/20 04:25:23;;;;;;;0.70;0.67;;;11.00;83.30;;;;;;4936264;29;20571;-72
2022/09/20 04:27:53;;;;;;;0.60;0.60;;;11.00;83.10;;;;;;4935822;29;20943;-72
2022/09/20 04:30:23;;;;;;;0.63;0.57;;;11.00;83.20;;;;;;4936057;29;20543;-72
2022/09/20 04:32:58;;;;;;;0.87;0.83;;;11.00;83.30;;;;;;4936011;29;20551;-73
2022/09/20 04:38:22;;;;;;;1.00;0.70;;;11.10;83.20;;;;;;4936139;29;20823;-72
2022/09/20 04:41:08;;;;;;;1.00;0.70;;;11.20;83.30;;;;;;4937703;29;20906;-72
2022/09/20 04:44:04;;;;;;;0.60;0.60;;;11.20;83.40;;;;;;4939818;29;20484;-72
2022/09/20 04:47:00;;;;;;;0.70;0.70;;;11.30;83.30;;;;;;4939713;29;20467;-72
2022/09/20 04:50:06;;;;;;;0.70;0.60;;;11.30;83.60;;;;;;4940416;29;20472;-73
2022/09/20 04:53:09;;;;;;;0.60;0.60;;;11.20;83.70;;;;;;4939495;29;20476;-72
2022/09/20 04:55:51;;;;;;;0.70;0.70;;;11.10;84.00;;;;;;4914830;29;20459;-73
2022/09/20 04:58:43;;;;;;;0.83;0.80;;;11.10;84.30;;;;;;4939501;29;20440;-73
2022/09/20 05:02:04;;;;;;;0.80;0.70;;;11.10;84.70;;;;;;4939216;29;20538;-72
2022/09/20 05:04:56;;;;;;;1.00;0.90;;;11.10;85.20;;;;;;4939054;29;20899;-72
2022/09/20 05:07:55;;;;;;;0.80;0.77;;;11.20;85.50;;;;;;4939290;29;20436;-71
2022/09/20 05:10:55;;;;;;;0.73;0.73;;;11.20;85.70;;;;;;4939158;29;20467;-72
2022/09/20 05:13:36;;;;;;;0.70;0.70;;;11.30;86.00;;;;;;4939297;29;20440;-72
2022/09/20 05:16:09;;;;;;;0.83;0.83;;;11.40;86.00;;;;;;4939255;29;20451;-73
2022/09/20 05:19:16;;;;;;;0.67;0.67;;;11.40;85.80;;;;;;4939237;29;20507;-73
2022/09/20 05:21:55;;;;;;;0.90;0.70;;;11.50;85.70;;;;;;4880670;29;20470;-72
2022/09/20 05:24:42;;;;;;;0.80;0.80;;;11.50;85.50;;;;;;4880496;29;20458;-72
2022/09/20 05:27:22;;;;;;;0.70;0.70;;;11.60;85.60;;;;;;4922339;29;20451;-73
2022/09/20 05:29:56;;;;;;;0.70;0.60;;;11.60;85.50;;;;;;4938595;29;21050;-72
2022/09/20 05:32:30;;;;;;;0.70;0.70;;;11.50;85.50;;;;;;4938898;29;20475;-72
2022/09/20 05:35:03;;;;;;;0.80;0.80;;;11.50;85.60;;;;;;4938940;29;20495;-72
2022/09/20 05:37:41;;;;;;;0.80;0.80;;;11.60;85.50;;;;;;4938894;29;20495;-72
2022/09/20 05:40:20;;;;;;;0.80;0.80;;;11.60;85.50;;;;;;4938855;29;20428;-72
2022/09/20 05:42:55;;;;;;;0.90;0.80;;;11.70;85.30;;;;;;4938892;29;20440;-72
2022/09/20 05:45:47;;;;;;;0.70;0.70;;;11.70;85.20;;;;;;4938762;29;20440;-72
2022/09/20 05:48:22;;;;;;;1.23;0.90;;;11.80;84.80;;;;;;4938570;29;20546;-72
2022/09/20 05:50:56;;;;;;;1.00;0.80;;;11.80;84.60;;;;;;4938503;29;20518;-72
2022/09/20 05:54:05;;;;;;;0.80;0.80;;;11.80;84.70;;;;;;4937826;29;20973;-73
2022/09/20 05:56:41;;;;;;;0.70;0.70;;;12.10;85.10;;;;;;4879650;29;20943;-73
2022/09/20 05:59:28;;;;;;;0.70;0.70;;;12.40;83.30;;;;;;4933520;29;20880;-72
2022/09/20 06:02:10;;;;;;;0.90;0.70;;;12.90;82.30;;;;;;4938210;29;21003;-73
2022/09/20 06:04:44;;;;;;;1.00;0.80;;;13.40;80.70;;;;;;4938439;29;20546;-73
2022/09/20 06:07:21;;;;;;;0.80;0.80;;;14.10;77.20;;;;;;4938380;29;20437;-73
2022/09/20 06:10:20;;;;;;;0.60;0.60;;;14.90;75.20;;;;;;4938155;29;20467;-72
2022/09/20 06:12:53;;;;;;;1.00;0.80;;;15.50;73.30;;;;;;4937909;29;20436;-73
2022/09/20 06:15:28;;;;;;;0.90;0.90;;;16.00;72.20;;;;;;4937853;29;20912;-73
2022/09/20 06:18:02;;;;;;;1.20;0.90;;;16.30;71.30;;;;;;4938086;29;20439;-73
2022/09/20 06:20:35;;;;;;;0.70;0.70;;;16.10;71.10;;;;;;4937973;29;20424;-72
2022/09/20 06:23:05;;;;;;;0.80;0.80;;;15.70;71.40;;;;;;4937967;29;20436;-73
2022/09/20 06:25:41;;;;;;;0.70;0.70;;;15.20;72.60;;;;;;4937921;29;20448;-73
2022/09/20 06:28:15;;;;;;;0.70;0.70;;;14.80;74.70;;;;;;4938259;29;20440;-72
2022/09/20 06:30:47;;;;;;;0.80;0.80;;;14.70;75.50;;;;;;4937734;29;20937;-72
2022/09/20 06:33:16;;;;;;;0.80;0.67;;;14.90;75.60;;;;;;4937938;29;20492;-72
2022/09/20 06:35:47;;;;;;;0.90;0.90;;;15.20;75.50;;;;;;4937767;29;20486;-73
2022/09/20 06:41:29;;;;;;;0.70;0.70;;;17.50;69.50;;;;;;4937656;29;20443;-73
2022/09/20 06:43:58;;;;;;;0.87;0.80;;;18.40;66.00;;;;;;4937898;29;20432;-72
2022/09/20 06:46:27;;;;;;;0.80;0.70;;;18.70;65.60;;;;;;4937613;29;20535;-73
2022/09/20 06:48:54;;;;;;;1.30;0.80;;;19.40;63.70;;;;;;4937252;29;20994;-73
2022/09/20 06:51:21;;;;;;;0.70;0.70;;;20.10;62.30;;;;;;4937206;29;20821;-73
2022/09/20 06:53:48;;;;;;;0.80;0.60;;;20.80;60.30;;;;;;4937724;29;20444;-73
2022/09/20 06:56:18;;;;;;;0.80;0.80;;;21.00;59.20;;;;;;4937411;29;21019;-73
2022/09/20 06:58:45;;;;;;;1.00;0.70;;;20.70;59.50;;;;;;4937447;29;20456;-73
2022/09/20 07:01:12;;;;;;;1.33;0.70;;;20.20;59.90;;;;;;4937214;29;20479;-73
2022/09/20 07:03:40;;;;;;;1.23;1.13;;;19.60;61.20;;;;;;4937458;29;20805;-73
2022/09/20 07:06:07;;;;;;;0.80;0.80;;;18.70;63.60;;;;;;4937449;29;20457;-73
2022/09/20 07:08:34;;;;;;;0.70;0.70;;;18.50;63.90;;;;;;4937342;29;20467;-73
2022/09/20 07:11:04;;;;;;;0.70;0.70;;;18.00;64.90;;;;;;4937159;29;20926;-73
2022/09/20 07:13:30;;;;;;;0.80;0.77;;;18.00;65.10;;;;;;4937316;29;20452;-73
2022/09/20 07:16:01;;;;;;;0.93;0.83;;;17.90;65.10;;;;;;4937121;29;20456;-73
2022/09/20 07:18:28;;;;;;;1.10;0.70;;;17.90;65.60;;;;;;4937160;29;20534;-73
2022/09/20 07:20:57;;;;;;;0.80;0.70;;;18.20;66.10;;;;;;4937061;29;20523;-73
2022/09/20 07:23:24;;;;;;;0.90;0.90;;;18.70;65.70;;;;;;4936776;29;20999;-73
2022/09/20 07:25:51;;;;;;;0.80;0.70;;;19.20;64.50;;;;;;4936926;29;20448;-73
2022/09/20 07:28:19;;;;;;;0.90;0.77;;;19.40;63.40;;;;;;4937116;29;20539;-73
2022/09/20 07:30:46;;;;;;;0.90;0.70;;;19.40;62.30;;;;;;4936968;29;20494;-73
2022/09/20 07:33:18;;;;;;;0.70;0.60;;;19.20;63.70;;;;;;4936534;29;20944;-74
2022/09/20 07:35:45;;;;;;;0.90;0.90;;;19.10;63.50;;;;;;4936635;29;20852;-73
2022/09/20 07:38:13;;;;;;;0.70;0.63;;;19.10;62.80;;;;;;4936900;29;20448;-73
2022/09/20 07:40:39;;;;;;;0.73;0.70;;;19.00;63.80;;;;;;4936559;29;20452;-73
2022/09/20 07:43:06;;;;;;;1.10;0.90;;;19.00;63.40;;;;;;4936726;29;20452;-74
2022/09/20 07:45:34;;;;;;;0.70;0.70;;;18.80;64.00;;;;;;4936644;29;20802;-73
2022/09/20 07:48:04;;;;;;;0.80;0.70;;;18.70;64.20;;;;;;4936657;29;20456;-73
2022/09/20 07:50:31;;;;;;;0.80;0.70;;;18.40;64.90;;;;;;4936352;29;20484;-73
2022/09/20 07:52:57;;;;;;;0.80;0.73;;;18.30;65.00;;;;;;4936683;29;20452;-73
2022/09/20 07:55:25;;;;;;;1.00;0.93;;;18.00;64.40;;;;;;4936536;29;20452;-73
2022/09/20 07:57:53;;;;;;;0.70;0.60;;;17.80;65.90;;;;;;4936146;29;20971;-73
2022/09/20 08:00:20;;;;;;;0.80;0.70;;;17.70;66.60;;;;;;4936418;29;20449;-73
2022/09/20 08:02:46;;;;;;;0.70;0.70;;;17.40;66.20;;;;;;4935969;29;20831;-73
2022/09/20 08:05:13;;;;;;;0.70;0.70;;;17.10;65.90;;;;;;4936394;29;20456;-73
2022/09/20 08:07:39;;;;;;;1.10;0.80;;;17.00;68.10;;;;;;4936389;29;20460;-73
2022/09/20 08:10:07;;;;;;;0.70;0.60;;;17.10;68.90;;;;;;4936281;29;20539;-73
2022/09/20 08:12:36;;;;;;;0.67;0.67;;;17.00;65.40;;;;;;4936291;29;20472;-73
2022/09/20 08:15:02;;;;;;;1.20;1.10;;;17.00;65.60;;;;;;4938057;29;20459;-73
2022/09/20 08:17:29;;;;;;;1.00;0.80;;;17.10;64.80;;;;;;4942669;29;20460;-73
2022/09/20 08:19:56;;;;;;;0.70;0.70;;;16.80;63.70;;;;;;4942772;29;20791;-73
2022/09/20 08:22:23;;;;;;;2.10;0.80;;;16.40;64.40;;;;;;4942187;29;20899;-73
2022/09/20 08:24:50;;;;;;;0.80;0.60;;;16.30;66.40;;;;;;4942553;29;20909;-73
2022/09/20 08:27:17;;;;;;;0.80;0.80;;;16.30;66.40;;;;;;4942577;29;20871;-73
2022/09/20 08:29:45;;;;;;;0.80;0.70;;;16.40;67.90;;;;;;4942392;29;20475;-73
2022/09/20 08:32:12;;;;;;;0.80;0.70;;;16.50;68.20;;;;;;4942448;29;20468;-73
2022/09/20 08:34:39;;;;;;;1.13;1.03;;;16.40;67.20;;;;;;4942471;29;20544;-73
2022/09/20 08:37:06;;;;;;;1.03;0.70;;;16.00;67.00;;;;;;4942451;29;20455;-73
2022/09/20 08:39:33;;;;;;;1.00;0.90;;;16.10;68.70;;;;;;4942503;29;20981;-73
2022/09/20 08:42:11;;;;;;;0.70;0.70;;;16.30;68.80;;;;;;4942491;29;20566;-73
2022/09/20 08:44:49;;;;;;;0.77;0.77;;;16.50;68.10;;;;;;4942446;29;20454;-73
2022/09/20 08:47:21;;;;;;;0.70;0.70;;;16.60;66.10;;;;;;4942468;29;20440;-73
2022/09/20 08:49:48;;;;;;;1.00;0.80;;;16.50;65.20;;;;;;4942383;29;20472;-73
2022/09/20 08:52:30;;;;;;;0.77;0.77;;;16.60;64.90;;;;;;4942315;29;20881;-73
2022/09/20 08:54:57;;;;;;;0.70;0.70;;;16.60;63.30;;;;;;4942400;29;20515;-73
2022/09/20 08:57:28;;;;;;;0.80;0.60;;;16.60;62.70;;;;;;4942737;29;20444;-73
2022/09/20 08:59:58;;;;;;;0.80;0.77;;;16.50;63.60;;;;;;4942271;29;20440;-73
2022/09/20 09:02:24;;;;;;;0.70;0.60;;;16.50;65.30;;;;;;4942080;29;20999;-73
2022/09/20 09:04:52;;;;;;;0.70;0.60;;;16.30;64.10;;;;;;4942211;29;20455;-73
2022/09/20 09:07:21;;;;;;;1.20;0.70;;;16.20;65.40;;;;;;4942185;29;20877;-73
2022/09/20 09:09:50;;;;;;;1.20;0.87;;;16.10;65.30;;;;;;4942101;29;20487;-73
2022/09/20 09:12:22;;;;;;;0.80;0.70;;;16.10;66.90;;;;;;4942094;29;20480;-73
2022/09/20 09:14:53;;;;;;;0.90;0.90;;;15.90;66.30;;;;;;4941820;29;20912;-73
2022/09/20 09:17:23;;;;;;;0.73;0.73;;;16.00;65.40;;;;;;4943791;29;20444;-73
2022/09/20 09:19:52;;;;;;;2.80;0.80;;;15.80;65.10;;;;;;4942509;29;20452;-73
2022/09/20 09:22:23;;;;;;;1.50;0.70;;;15.80;65.20;;;;;;4942136;29;20471;-73
2022/09/20 09:25:10;;;;;;;0.90;0.73;;;15.80;66.70;;;;;;4942361;29;20527;-73
2022/09/20 09:27:50;;;;;;;0.80;0.70;;;15.70;67.80;;;;;;4938726;29;20463;-73
2022/09/20 09:30:21;;;;;;;0.70;0.70;;;15.70;66.10;;;;;;4939128;29;20589;-72
2022/09/20 09:32:49;;;;;;;0.63;0.63;;;15.70;67.40;;;;;;4938830;29;20920;-73
2022/09/20 09:35:28;;;;;;;0.70;0.63;;;15.60;67.70;;;;;;4939057;29;20447;-73
2022/09/20 09:37:57;;;;;;;0.77;0.70;;;15.70;66.50;;;;;;4939065;29;20440;-72
2022/09/20 09:40:24;;;;;;;0.80;0.77;;;15.70;66.60;;;;;;4938767;29;20484;-73
2022/09/20 09:42:52;;;;;;;2.20;0.70;;;15.80;67.00;;;;;;4938649;29;20812;-73
2022/09/20 09:45:29;;;;;;;1.10;1.03;;;15.90;66.20;;;;;;4938607;29;20976;-73
2022/09/20 09:47:59;;;;;;;0.80;0.70;;;16.00;66.80;;;;;;4938746;29;20864;-73
2022/09/20 09:50:29;;;;;;;0.80;0.80;;;16.00;64.40;;;;;;4938181;29;20491;-72
2022/09/20 09:53:10;;;;;;;0.70;0.60;;;16.20;63.30;;;;;;4938306;29;20894;-73
2022/09/20 09:55:56;;;;;;;1.00;0.90;;;16.10;63.10;;;;;;4938754;29;20496;-73
2022/09/20 09:58:35;;;;;;;0.70;0.60;;;16.10;63.30;;;;;;4938668;29;20440;-73
2022/09/20 10:01:08;;;;;;;0.70;0.60;;;16.10;63.60;;;;;;4938364;29;20495;-73
2022/09/20 10:03:49;;;;;;;0.70;0.60;;;16.10;62.90;;;;;;4938680;29;20490;-73
2022/09/20 10:06:22;;;;;;;0.70;0.70;;;16.00;62.20;;;;;;4938478;29;20842;-73
2022/09/20 10:09:03;;;;;;;1.10;0.70;;;15.90;62.80;;;;;;4938438;29;20443;-73
2022/09/20 10:11:40;;;;;;;0.80;0.80;;;15.80;62.30;;;;;;4938414;29;20487;-73
2022/09/20 10:14:20;;;;;;;0.80;0.73;;;15.70;64.00;;;;;;4938368;29;20436;-72
2022/09/20 10:17:07;;;;;;;0.70;0.63;;;15.60;63.50;;;;;;4938361;29;20487;-73
2022/09/20 10:19:48;;;;;;;0.97;0.77;;;15.60;65.10;;;;;;4938316;29;20433;-73
2022/09/20 10:22:27;;;;;;;0.87;0.80;;;15.40;65.60;;;;;;4938184;29;20476;-72
2022/09/20 10:25:02;;;;;;;1.00;0.90;;;15.50;66.20;;;;;;4938138;29;20565;-73
2022/09/20 10:27:41;;;;;;;0.70;0.70;;;15.60;66.50;;;;;;4938180;29;20515;-73
2022/09/20 10:30:12;;;;;;;0.70;0.63;;;15.70;65.80;;;;;;4938014;29;20472;-73
2022/09/20 10:32:54;;;;;;;0.90;0.80;;;15.80;66.00;;;;;;4937870;29;20468;-73
2022/09/20 10:35:35;;;;;;;1.00;0.70;;;15.80;65.40;;;;;;4938168;29;20556;-73
2022/09/20 10:38:18;;;;;;;0.70;0.70;;;15.80;66.70;;;;;;4937679;29;20428;-73
2022/09/20 10:44:00;;;;;;;0.80;0.80;;;15.70;65.70;;;;;;4937864;29;20427;-72
2022/09/20 10:46:36;;;;;;;0.70;0.70;;;15.70;66.00;;;;;;4937800;29;20444;-73
2022/09/20 10:49:10;;;;;;;0.70;0.63;;;15.80;65.90;;;;;;4937778;29;20471;-73
2022/09/20 10:51:46;;;;;;;0.83;0.60;;;16.00;65.50;;;;;;4937601;29;20494;-73
2022/09/20 10:54:23;;;;;;;0.70;0.60;;;16.10;65.30;;;;;;4937504;29;20431;-73
2022/09/20 10:56:59;;;;;;;0.67;0.60;;;16.00;64.90;;;;;;4937573;29;20535;-73
2022/09/20 10:59:41;;;;;;;0.83;0.70;;;16.00;67.10;;;;;;4937226;29;20845;-73
2022/09/20 11:02:25;;;;;;;0.70;0.60;;;16.10;64.80;;;;;;4937285;29;20479;-73
2022/09/20 11:05:24;;;;;;;0.77;0.70;;;16.10;64.60;;;;;;4937475;29;20437;-73
2022/09/20 11:08:00;;;;;;;0.70;0.70;;;16.10;64.70;;;;;;4937139;29;20883;-72
2022/09/20 11:10:34;;;;;;;0.70;0.70;;;16.10;65.20;;;;;;4937145;29;20566;-72
2022/09/20 11:13:07;;;;;;;0.70;0.60;;;16.20;63.90;;;;;;4937910;29;20440;-73
2022/09/20 11:15:38;;;;;;;0.70;0.70;;;16.20;64.10;;;;;;4937307;29;20543;-73
2022/09/20 11:18:12;;;;;;;0.70;0.70;;;16.20;63.40;;;;;;4937025;29;20912;-73
2022/09/20 11:20:44;;;;;;;0.80;0.80;;;16.30;61.90;;;;;;4937158;29;20436;-72
2022/09/20 11:23:17;;;;;;;0.80;0.70;;;16.20;61.80;;;;;;4937215;29;20447;-73
2022/09/20 11:25:50;;;;;;;0.70;0.60;;;16.30;61.90;;;;;;4937054;29;20560;-73
2022/09/20 11:28:22;;;;;;;0.67;0.60;;;16.50;60.80;;;;;;4936867;29;20480;-73
2022/09/20 11:30:55;;;;;;;0.70;0.60;;;16.60;58.90;;;;;;4936892;29;20496;-73
2022/09/20 11:33:28;;;;;;;0.60;0.60;;;16.80;57.80;;;;;;4937121;29;20499;-73
2022/09/20 11:35:59;;;;;;;0.80;0.63;;;17.10;60.40;;;;;;4936875;29;20500;-73
2022/09/20 11:38:32;;;;;;;0.80;0.70;;;17.20;60.20;;;;;;4937027;29;20510;-73
2022/09/20 11:41:02;;;;;;;1.00;0.90;;;17.30;58.50;;;;;;4936818;29;20471;-72
2022/09/20 11:43:30;;;;;;;0.70;0.60;;;17.60;58.60;;;;;;4937115;29;20440;-73
2022/09/20 11:46:01;;;;;;;0.70;0.70;;;17.80;56.20;;;;;;4936475;29;20875;-73
2022/09/20 11:48:33;;;;;;;0.60;0.60;;;17.90;55.70;;;;;;4936899;29;20487;-73
2022/09/20 11:51:21;;;;;;;1.00;0.60;;;17.80;56.70;;;;;;4936031;29;20541;-73
2022/09/20 11:54:03;;;;;;;2.10;0.77;;;17.50;57.30;;;;;;4936737;29;20487;-73
2022/09/20 11:56:32;;;;;;;0.60;0.60;;;17.70;58.50;;;;;;4936641;29;20444;-73
2022/09/20 11:59:02;;;;;;;0.70;0.60;;;17.30;59.70;;;;;;4936509;29;20655;-72
2022/09/20 12:01:32;;;;;;;0.77;0.70;;;17.10;60.10;;;;;;4936374;29;20540;-73
2022/09/20 12:04:02;;;;;;;0.90;0.70;;;16.80;59.80;;;;;;4936486;29;20448;-73
2022/09/20 12:06:33;;;;;;;0.70;0.60;;;16.60;59.30;;;;;;4936573;29;20800;-73
2022/09/20 12:09:04;;;;;;;0.80;0.80;;;16.50;59.30;;;;;;4936458;29;20472;-73
2022/09/20 12:11:34;;;;;;;0.90;0.70;;;16.40;59.00;;;;;;4936231;29;20495;-73
2022/09/20 12:14:04;;;;;;;1.33;0.60;;;16.40;59.30;;;;;;4936288;29;20444;-73
2022/09/20 12:16:40;;;;;;;0.70;0.60;;;16.40;58.70;;;;;;4936341;29;20456;-73
2022/09/20 12:19:11;;;;;;;0.70;0.60;;;16.60;58.70;;;;;;4935985;29;21018;-73
2022/09/20 12:22:26;;;;;;;0.60;0.60;;;16.90;57.40;;;;;;4936264;29;20480;-72
2022/09/20 12:25:27;;;;;;;1.00;0.87;;;17.00;54.90;;;;;;4936455;29;20515;-73
2022/09/20 12:27:58;;;;;;;0.60;0.60;;;17.20;55.40;;;;;;4935859;29;20515;-73
2022/09/20 12:30:25;;;;;;;0.70;0.60;;;17.20;54.50;;;;;;4935972;29;20504;-72
2022/09/20 12:32:55;;;;;;;0.70;0.60;;;17.30;54.50;;;;;;4936340;29;20951;-73
2022/09/20 12:36:13;;;;;;;0.60;0.60;;;17.70;57.40;;;;;;4936274;29;20546;-73
2022/09/20 12:39:02;;;;;;;0.63;0.60;;;17.80;52.70;;;;;;4935892;29;20821;-73
2022/09/20 12:41:46;;;;;;;0.67;0.60;;;17.80;51.80;;;;;;4936079;29;20468;-73
2022/09/20 12:44:26;;;;;;;0.70;0.70;;;17.90;52.90;;;;;;4936140;29;20432;-73
2022/09/20 12:46:56;;;;;;;0.70;0.70;;;17.90;52.90;;;;;;4935852;29;20930;-73
2022/09/20 12:52:59;;;;;;;0.60;0.53;;;17.80;52.10;;;;;;4936018;29;20549;-74
2022/09/20 12:55:42;;;;;;;0.90;0.77;;;18.20;51.90;;;;;;4936124;29;20443;-73
2022/09/20 12:58:36;;;;;;;0.70;0.60;;;18.50;52.90;;;;;;4936078;29;20805;-73
2022/09/20 13:01:30;;;;;;;0.70;0.60;;;18.80;50.80;;;;;;4936375;29;20471;-73
2022/09/20 13:04:34;;;;;;;0.60;0.50;;;19.10;50.30;;;;;;4939243;29;20940;-73
2022/09/20 13:07:31;;;;;;;1.00;0.70;;;19.30;49.50;;;;;;4940274;29;20879;-73
2022/09/20 13:10:00;;;;;;;0.70;0.70;;;19.40;50.00;;;;;;4939437;29;20432;-73
2022/09/20 13:12:27;;;;;;;0.70;0.60;;;19.70;51.90;;;;;;4939334;29;20487;-73
2022/09/20 13:14:54;;;;;;;0.70;0.70;;;20.00;50.50;;;;;;4939087;29;20872;-73
2022/09/20 13:17:29;;;;;;;0.60;0.60;;;20.00;50.10;;;;;;4939349;29;20456;-73
2022/09/20 13:19:56;;;;;;;0.70;0.60;;;19.90;49.50;;;;;;4939329;29;20443;-73
2022/09/20 13:22:27;;;;;;;1.00;0.70;;;19.50;47.60;;;;;;4939106;29;20464;-73
2022/09/20 13:25:01;;;;;;;0.90;0.77;;;19.10;49.60;;;;;;4939137;29;20555;-73
2022/09/20 13:27:33;;;;;;;1.13;0.63;;;19.00;50.30;;;;;;4939248;29;20451;-73
2022/09/20 13:30:09;;;;;;;0.90;0.80;;;18.60;51.20;;;;;;4939178;29;20452;-73
2022/09/20 13:32:40;;;;;;;0.70;0.63;;;18.60;52.30;;;;;;4938670;29;20912;-73
2022/09/20 13:35:13;;;;;;;0.60;0.60;;;18.30;52.60;;;;;;4939175;29;20885;-73
2022/09/20 13:37:47;;;;;;;0.80;0.70;;;18.10;53.10;;;;;;4939843;29;20840;-73
2022/09/20 13:40:18;;;;;;;0.80;0.67;;;18.20;54.50;;;;;;4938526;29;20460;-73
2022/09/20 13:42:46;;;;;;;0.80;0.70;;;18.10;53.90;;;;;;4938476;29;20988;-73
2022/09/20 13:45:14;;;;;;;1.37;0.60;;;18.00;54.90;;;;;;4938749;29;20456;-73
2022/09/20 13:47:43;;;;;;;0.80;0.70;;;17.90;54.60;;;;;;4938817;29;20444;-73
2022/09/20 13:50:17;;;;;;;0.80;0.60;;;17.70;55.10;;;;;;4938458;29;20452;-73
2022/09/20 13:52:46;;;;;;;1.23;0.73;;;17.70;54.90;;;;;;4938882;29;20542;-73
2022/09/20 13:55:28;;;;;;;0.73;0.73;;;17.60;55.30;;;;;;4938749;29;20456;-73
2022/09/20 13:57:58;;;;;;;0.70;0.60;;;17.50;54.90;;;;;;4938679;29;20456;-73
2022/09/20 14:00:25;;;;;;;0.70;0.70;;;17.40;55.20;;;;;;4938434;29;20452;-72
2022/09/20 14:02:54;;;;;;;0.70;0.70;;;17.30;54.70;;;;;;4938186;29;20948;-73
2022/09/20 14:05:23;;;;;;;0.97;0.70;;;17.30;54.20;;;;;;4938347;29;20546;-73
2022/09/20 14:07:50;;;;;;;1.00;0.70;;;17.10;54.60;;;;;;4938443;29;20452;-72
2022/09/20 14:10:29;;;;;;;0.70;0.60;;;17.00;56.00;;;;;;4938338;29;20484;-73
2022/09/20 14:12:57;;;;;;;0.80;0.60;;;16.90;56.60;;;;;;4938239;29;20523;-73
2022/09/20 14:15:26;;;;;;;0.60;0.60;;;16.90;58.40;;;;;;4938385;29;20489;-73
2022/09/20 14:17:54;;;;;;;0.70;0.70;;;16.70;58.70;;;;;;4938281;29;20448;-73
2022/09/20 14:20:22;;;;;;;0.70;0.70;;;16.70;58.50;;;;;;4938105;29;20452;-73
2022/09/20 14:22:49;;;;;;;0.80;0.80;;;16.50;59.80;;;;;;4938422;29;20447;-73
2022/09/20 14:25:21;;;;;;;0.80;0.70;;;16.30;61.70;;;;;;4938214;29;20487;-73
2022/09/20 14:27:48;;;;;;;0.83;0.83;;;16.20;62.30;;;;;;4938211;29;20577;-73
2022/09/20 14:30:29;;;;;;;1.00;0.90;;;16.10;62.80;;;;;;4938006;29;20452;-73
2022/09/20 14:32:58;;;;;;;0.70;0.70;;;16.10;63.10;;;;;;4937963;29;20484;-73
2022/09/20 14:35:25;;;;;;;1.57;0.70;;;16.10;63.70;;;;;;4938032;29;20519;-73
2022/09/20 14:37:55;;;;;;;0.60;0.60;;;16.00;62.50;;;;;;4937602;29;21043;-72
2022/09/20 14:40:27;;;;;;;0.70;0.60;;;15.90;62.30;;;;;;4937871;29;20451;-72
2022/09/20 14:42:56;;;;;;;0.70;0.60;;;15.80;62.40;;;;;;4937888;29;20487;-73
2022/09/20 14:45:26;;;;;;;1.20;1.00;;;15.90;63.20;;;;;;4937735;29;20513;-73
2022/09/20 14:47:58;;;;;;;0.90;0.70;;;15.80;63.30;;;;;;4937408;29;20936;-73
2022/09/20 14:50:28;;;;;;;0.70;0.60;;;15.70;62.50;;;;;;4937658;29;20443;-72
2022/09/20 14:53:05;;;;;;;0.80;0.80;;;15.70;62.70;;;;;;4937605;29;20837;-73
2022/09/20 14:55:33;;;;;;;0.80;0.70;;;15.70;64.30;;;;;;4937671;29;20810;-73
2022/09/20 14:58:02;;;;;;;0.80;0.70;;;15.60;62.00;;;;;;4937353;29;20460;-73
2022/09/20 15:00:29;;;;;;;1.63;0.70;;;15.60;60.60;;;;;;4937233;29;20479;-72
2022/09/20 15:03:05;;;;;;;0.70;0.70;;;15.60;60.40;;;;;;4937037;29;20460;-73
2022/09/20 15:05:32;;;;;;;0.70;0.70;;;15.60;60.00;;;;;;4937333;29;20447;-73
2022/09/20 15:07:59;;;;;;;0.80;0.60;;;15.80;58.70;;;;;;4937185;29;20459;-73
2022/09/20 15:10:26;;;;;;;0.60;0.53;;;16.00;58.00;;;;;;4937041;29;20455;-72
2022/09/20 15:12:53;;;;;;;0.70;0.63;;;16.20;57.40;;;;;;4937013;29;20866;-73
2022/09/20 15:15:19;;;;;;;0.60;0.50;;;16.40;56.80;;;;;;4961909;23;20948;-71
2022/09/20 15:17:47;;;;;;;0.67;0.60;;;16.60;56.30;;;;;;4916607;29;20508;-73
2022/09/20 15:20:19;;;;;;;0.70;0.60;;;16.90;56.70;;;;;;4917737;29;20565;-73
2022/09/20 15:22:47;;;;;;;0.60;0.60;;;17.00;56.10;;;;;;4917774;29;20485;-74
2022/09/20 15:25:16;;;;;;;0.60;0.60;;;17.20;55.30;;;;;;4916761;29;20499;-73
2022/09/20 15:27:45;;;;;;;0.70;0.60;;;17.30;53.80;;;;;;4898736;29;20470;-73
2022/09/20 15:30:13;;;;;;;0.70;0.60;;;17.40;53.90;;;;;;4898308;29;20929;-73
2022/09/20 15:32:40;;;;;;;0.70;0.60;;;17.40;54.90;;;;;;4898539;29;20538;-73
2022/09/20 15:35:07;;;;;;;0.60;0.50;;;17.50;55.50;;;;;;4898520;29;20449;-73
2022/09/20 15:37:36;;;;;;;0.70;0.60;;;17.30;54.00;;;;;;4898379;29;20501;-73
2022/09/20 15:40:03;;;;;;;0.70;0.60;;;17.10;55.30;;;;;;4898230;29;20509;-73
2022/09/20 15:42:30;;;;;;;0.70;0.60;;;17.00;55.60;;;;;;4898427;29;20873;-73
2022/09/20 15:44:57;;;;;;;0.70;0.60;;;16.90;55.20;;;;;;4898397;29;20454;-73
2022/09/20 15:47:23;;;;;;;0.80;0.70;;;16.80;55.20;;;;;;4898301;29;20470;-73
2022/09/20 15:49:51;;;;;;;0.70;0.60;;;16.70;56.00;;;;;;4898367;29;20496;-73
2022/09/20 15:52:23;;;;;;;0.80;0.70;;;16.60;55.80;;;;;;4898237;29;20955;-73
2022/09/20 15:54:52;;;;;;;0.70;0.60;;;16.40;55.90;;;;;;4898739;29;20533;-72
2022/09/20 15:57:19;;;;;;;0.70;0.60;;;16.40;56.70;;;;;;4898524;29;20516;-72
2022/09/20 15:59:46;;;;;;;0.70;0.70;;;16.40;56.90;;;;;;4898704;29;20465;-72
2022/09/20 16:02:13;;;;;;;0.70;0.60;;;16.40;57.20;;;;;;4898181;29;20454;-72
2022/09/20 16:04:39;;;;;;;0.60;0.60;;;16.50;57.20;;;;;;4898171;29;20513;-72
2022/09/20 16:07:08;;;;;;;0.70;0.63;;;16.50;56.90;;;;;;4898096;29;20541;-73
2022/09/20 16:09:36;;;;;;;0.70;0.70;;;16.30;57.30;;;;;;4898111;29;20497;-73
2022/09/20 16:12:05;;;;;;;0.70;0.57;;;16.30;57.90;;;;;;4898050;29;20489;-72
2022/09/20 16:14:32;;;;;;;0.67;0.60;;;16.20;57.70;;;;;;4898048;29;20802;-72
2022/09/20 16:16:58;;;;;;;1.00;0.70;;;16.20;57.70;;;;;;4897560;29;20484;-72
2022/09/20 16:19:25;;;;;;;0.60;0.60;;;16.00;57.40;;;;;;4897969;29;20941;-73
2022/09/20 16:21:53;;;;;;;0.80;0.60;;;15.90;58.10;;;;;;4897963;29;20941;-72
2022/09/20 16:24:23;;;;;;;0.70;0.63;;;15.80;58.00;;;;;;4898323;29;20490;-72
2022/09/20 16:26:50;;;;;;;0.60;0.60;;;15.70;58.90;;;;;;4897568;29;20925;-72
2022/09/20 16:29:20;;;;;;;0.70;0.60;;;15.60;58.60;;;;;;4897853;29;20552;-72
2022/09/20 16:31:49;;;;;;;0.70;0.60;;;15.50;59.00;;;;;;4897858;29;20787;-72
2022/09/20 16:34:18;;;;;;;0.60;0.60;;;15.50;59.60;;;;;;4897978;29;20450;-73
2022/09/20 16:36:45;;;;;;;0.70;0.60;;;15.30;59.80;;;;;;4899592;29;20513;-72
2022/09/20 16:39:12;;;;;;;0.60;0.50;;;15.30;59.90;;;;;;4901772;29;20460;-73